Time;durP1;ratioP1;P1;durP2;ratioP2;P2;SDS_P1;SDS_P2;PMS_P1;PMS_P2;Temp;Humidity;BMP_temperature;BMP_pressure;BME280_temperature;BME280_humidity;BME280_pressure;Samples;Min_cycle;Max_cycle;Signal;HPM_P1;HPM_P2
2021/03/11 00:01:50;;;;;;;1.50;0.23;;;8.30;99.00;;;;;;5099034;28;20213;-58
2021/03/11 00:04:16;;;;;;;2.90;1.30;;;8.30;99.90;;;;;;5089466;28;20175;-57
2021/03/11 00:06:42;;;;;;;1.50;0.20;;;8.10;99.90;;;;;;5090937;28;20188;-57
2021/03/11 00:09:08;;;;;;;1.50;0.20;;;8.10;99.90;;;;;;5093742;28;20441;-57
2021/03/11 00:11:33;;;;;;;1.67;0.40;;;7.90;99.90;;;;;;5093381;28;20316;-58
2021/03/11 00:13:59;;;;;;;1.73;0.57;;;7.90;99.90;;;;;;5087736;28;20224;-58
2021/03/11 00:16:24;;;;;;;1.50;0.20;;;7.80;99.90;;;;;;5094064;28;20208;-58
2021/03/11 00:18:50;;;;;;;5.73;3.30;;;7.70;99.90;;;;;;5089007;28;20282;-58
2021/03/11 00:21:15;;;;;;;1.53;0.20;;;7.70;99.90;;;;;;5096167;28;20186;-57
2021/03/11 00:23:41;;;;;;;1.70;0.47;;;7.80;99.90;;;;;;5099517;28;20192;-57
2021/03/11 00:26:07;;;;;;;3.17;1.20;;;7.80;99.90;;;;;;5094088;28;20208;-57
2021/03/11 00:28:32;;;;;;;1.80;0.90;;;7.80;99.90;;;;;;5094810;28;20556;-56
2021/03/11 00:30:58;;;;;;;9.47;5.93;;;7.80;99.90;;;;;;5100771;28;20425;-57
2021/03/11 00:33:24;;;;;;;2.47;1.30;;;7.80;99.90;;;;;;5093750;28;20197;-58
2021/03/11 00:35:50;;;;;;;1.97;0.83;;;7.90;99.90;;;;;;5097330;28;20471;-57
2021/03/11 00:38:15;;;;;;;5.73;3.10;;;7.90;99.90;;;;;;5086867;28;20182;-56
2021/03/11 00:40:41;;;;;;;6.83;4.10;;;7.90;99.90;;;;;;5096402;28;20189;-57
2021/03/11 00:43:07;;;;;;;2.43;0.87;;;7.90;99.90;;;;;;5097828;28;20180;-58
2021/03/11 00:45:32;;;;;;;4.43;3.07;;;7.90;99.90;;;;;;5098658;28;20522;-58
2021/03/11 00:47:58;;;;;;;2.53;0.67;;;8.00;99.90;;;;;;5085436;28;20431;-57
2021/03/11 00:50:23;;;;;;;1.50;0.20;;;8.00;99.90;;;;;;5093447;28;20215;-57
2021/03/11 00:52:49;;;;;;;4.23;1.57;;;8.00;99.90;;;;;;5088740;28;20262;-57
2021/03/11 00:55:18;;;;;;;1.50;0.20;;;8.00;99.90;;;;;;5092006;28;20211;-57
2021/03/11 00:57:43;;;;;;;6.03;3.23;;;7.90;99.90;;;;;;5097686;28;20181;-57
2021/03/11 01:00:12;;;;;;;1.70;0.63;;;7.80;99.90;;;;;;5096736;28;20785;-58
2021/03/11 01:02:37;;;;;;;1.60;0.30;;;7.70;99.90;;;;;;5093104;28;20636;-56
2021/03/11 01:05:04;;;;;;;1.57;0.30;;;7.70;99.90;;;;;;5097818;28;20473;-59
2021/03/11 01:07:30;;;;;;;2.53;0.80;;;7.70;99.90;;;;;;5089058;28;20194;-57
2021/03/11 01:09:56;;;;;;;4.83;1.20;;;7.70;99.90;;;;;;5089878;28;20808;-57
2021/03/11 01:12:21;;;;;;;1.50;0.20;;;7.70;99.90;;;;;;5099556;28;20175;-58
2021/03/11 01:14:46;;;;;;;1.50;0.20;;;7.70;99.90;;;;;;5088457;28;20214;-58
2021/03/11 01:17:12;;;;;;;1.50;0.20;;;7.70;99.90;;;;;;5098880;28;20627;-58
2021/03/11 01:19:38;;;;;;;8.03;4.63;;;7.70;99.90;;;;;;5096168;28;20176;-58
2021/03/11 01:22:04;;;;;;;1.60;0.30;;;7.70;99.90;;;;;;5069106;28;20208;-57
2021/03/11 01:24:30;;;;;;;1.90;0.50;;;7.70;99.90;;;;;;5127572;22;20497;-61
2021/03/11 01:26:56;;;;;;;1.50;0.20;;;7.70;99.90;;;;;;5118977;27;20428;-62
2021/03/11 01:29:22;;;;;;;1.50;0.20;;;7.80;99.90;;;;;;5112148;27;20440;-62
2021/03/11 01:31:48;;;;;;;1.50;0.20;;;7.80;99.90;;;;;;5115617;27;20439;-61
2021/03/11 01:34:13;;;;;;;1.60;0.27;;;7.90;99.90;;;;;;5112114;27;20217;-61
2021/03/11 01:36:39;;;;;;;1.60;0.30;;;8.00;99.90;;;;;;5111696;27;20179;-62
2021/03/11 01:39:05;;;;;;;1.60;0.40;;;8.00;99.90;;;;;;5119330;28;20368;-62
2021/03/11 01:41:30;;;;;;;1.50;0.20;;;8.10;99.90;;;;;;5116374;28;20485;-61
2021/03/11 01:43:57;;;;;;;1.60;0.40;;;8.10;99.90;;;;;;5122073;28;20520;-62
2021/03/11 01:46:26;;;;;;;1.53;0.30;;;8.10;99.90;;;;;;5129867;28;20175;-62
2021/03/11 01:48:52;;;;;;;8.20;1.17;;;8.20;99.90;;;;;;5121566;28;20460;-61
2021/03/11 01:51:19;;;;;;;1.90;0.60;;;8.30;99.90;;;;;;5125578;28;20436;-62
2021/03/11 01:53:48;;;;;;;4.53;2.00;;;8.30;99.90;;;;;;5123913;28;20458;-61
2021/03/11 01:56:13;;;;;;;1.50;0.20;;;8.30;99.90;;;;;;5116994;28;20476;-62
2021/03/11 01:58:40;;;;;;;4.60;1.97;;;8.30;99.90;;;;;;5113875;28;20444;-61
2021/03/11 02:01:05;;;;;;;1.53;0.30;;;8.40;99.90;;;;;;5124234;28;20198;-62
2021/03/11 02:03:31;;;;;;;4.20;1.77;;;8.50;99.90;;;;;;5128256;28;20465;-62
2021/03/11 02:05:57;;;;;;;4.53;2.53;;;8.50;99.90;;;;;;5129532;28;20661;-62
2021/03/11 02:08:22;;;;;;;3.40;1.80;;;8.50;99.90;;;;;;5089531;28;20176;-61
2021/03/11 02:10:48;;;;;;;2.33;0.87;;;8.60;99.90;;;;;;5114748;27;20207;-61
2021/03/11 02:13:38;;;;;;;3.27;1.57;;;8.60;99.90;;;;;;5124441;27;20179;-62
2021/03/11 02:16:31;;;;;;;5.27;3.23;;;8.60;99.90;;;;;;5124366;27;20486;-61
2021/03/11 02:19:13;;;;;;;1.50;0.20;;;8.60;99.90;;;;;;5124722;27;20484;-61
2021/03/11 02:21:50;;;;;;;2.50;1.10;;;8.60;99.90;;;;;;5128815;27;20429;-61
2021/03/11 02:24:27;;;;;;;3.50;1.23;;;8.70;99.90;;;;;;5140761;27;20478;-61
2021/03/11 02:27:11;;;;;;;3.40;1.60;;;8.70;99.90;;;;;;5132275;27;20456;-61
2021/03/11 02:29:39;;;;;;;1.60;0.30;;;8.70;99.90;;;;;;5115526;28;20430;-61
2021/03/11 02:32:09;;;;;;;1.50;0.20;;;8.80;99.90;;;;;;5129249;27;20508;-61
2021/03/11 02:34:37;;;;;;;1.70;0.60;;;8.80;99.90;;;;;;5134239;27;20456;-62
2021/03/11 02:37:31;;;;;;;9.53;3.80;;;8.80;99.90;;;;;;5123280;27;20820;-62
2021/03/11 02:40:03;;;;;;;1.53;0.27;;;8.80;99.90;;;;;;5124159;27;20784;-61
2021/03/11 02:42:31;;;;;;;3.80;1.97;;;8.80;99.90;;;;;;5115258;28;20854;-62
2021/03/11 02:44:57;;;;;;;4.03;2.47;;;8.70;99.90;;;;;;5113969;27;20830;-62
2021/03/11 02:47:24;;;;;;;8.10;3.40;;;8.70;99.90;;;;;;5116190;27;20539;-61
2021/03/11 02:49:51;;;;;;;2.40;1.23;;;8.60;99.90;;;;;;5121513;27;21002;-61
2021/03/11 02:52:19;;;;;;;3.97;2.20;;;8.60;99.90;;;;;;5111661;27;20451;-61
2021/03/11 02:54:45;;;;;;;2.03;0.97;;;8.60;99.90;;;;;;5121204;27;20457;-60
2021/03/11 02:57:12;;;;;;;2.63;2.30;;;8.60;99.90;;;;;;5113284;27;20490;-62
2021/03/11 02:59:39;;;;;;;1.50;0.20;;;8.70;99.90;;;;;;5098379;28;20440;-61
2021/03/11 03:02:05;;;;;;;1.50;0.20;;;8.70;99.90;;;;;;5119401;27;20445;-61
2021/03/11 03:04:32;;;;;;;1.50;0.20;;;8.80;99.90;;;;;;5106747;27;20467;-61
2021/03/11 03:07:00;;;;;;;1.50;0.20;;;8.70;99.90;;;;;;5113253;27;20437;-61
2021/03/11 03:09:26;;;;;;;1.60;0.60;;;8.80;99.90;;;;;;5130945;27;20447;-61
2021/03/11 03:11:54;;;;;;;1.63;0.40;;;8.80;99.90;;;;;;5115876;27;20840;-61
2021/03/11 03:14:20;;;;;;;4.27;2.47;;;8.80;99.90;;;;;;5121291;27;20469;-61
2021/03/11 03:16:47;;;;;;;3.30;1.03;;;8.80;99.90;;;;;;5119928;27;20945;-61
2021/03/11 03:19:13;;;;;;;1.97;0.70;;;8.80;99.90;;;;;;5115449;27;20486;-62
2021/03/11 03:21:42;;;;;;;3.67;2.17;;;8.80;99.90;;;;;;5122231;27;20425;-62
2021/03/11 03:24:11;;;;;;;3.80;1.50;;;8.80;99.90;;;;;;5096485;27;20465;-62
2021/03/11 03:26:38;;;;;;;5.40;1.70;;;8.80;99.90;;;;;;5113751;27;20428;-62
2021/03/11 03:29:05;;;;;;;2.07;1.13;;;8.80;99.90;;;;;;5126354;27;20417;-62
2021/03/11 03:31:31;;;;;;;4.80;1.90;;;8.80;99.90;;;;;;5129624;27;20428;-62
2021/03/11 03:33:56;;;;;;;2.77;1.03;;;8.80;99.90;;;;;;5109382;27;20536;-62
2021/03/11 03:36:22;;;;;;;4.33;2.73;;;8.80;99.90;;;;;;5120839;27;20514;-62
2021/03/11 03:38:48;;;;;;;2.47;1.00;;;8.80;99.90;;;;;;5121982;27;20186;-62
2021/03/11 03:41:15;;;;;;;2.70;1.00;;;8.80;99.90;;;;;;5114170;27;20432;-62
2021/03/11 03:43:44;;;;;;;4.93;2.13;;;8.80;99.90;;;;;;5118423;27;20248;-62
2021/03/11 03:46:11;;;;;;;1.50;0.20;;;8.70;99.90;;;;;;5114384;27;20429;-62
2021/03/11 03:48:44;;;;;;;4.00;1.60;;;8.80;99.90;;;;;;5109856;27;20442;-62
2021/03/11 03:51:11;;;;;;;1.50;0.20;;;8.80;99.90;;;;;;5124918;27;20433;-62
2021/03/11 03:53:43;;;;;;;7.57;4.27;;;8.80;99.90;;;;;;5119450;27;20530;-62
2021/03/11 03:56:22;;;;;;;4.90;2.53;;;8.80;99.90;;;;;;5112794;27;20505;-62
2021/03/11 03:58:50;;;;;;;6.03;3.37;;;8.80;99.90;;;;;;5125558;27;20429;-62
2021/03/11 04:01:15;;;;;;;1.50;0.20;;;8.80;99.90;;;;;;5120280;27;20480;-61
2021/03/11 04:03:41;;;;;;;5.10;3.27;;;8.80;99.90;;;;;;5096514;28;20537;-61
2021/03/11 04:06:10;;;;;;;1.50;0.20;;;8.80;99.90;;;;;;5118048;27;20463;-62
2021/03/11 04:08:37;;;;;;;3.17;1.40;;;8.80;99.90;;;;;;5108025;27;20175;-62
2021/03/11 04:11:03;;;;;;;3.90;1.30;;;8.90;99.90;;;;;;5116469;27;20444;-62
2021/03/11 04:13:31;;;;;;;5.93;2.87;;;8.90;99.90;;;;;;5130024;27;20535;-62
2021/03/11 04:15:57;;;;;;;3.00;0.67;;;8.90;99.90;;;;;;5119322;27;20481;-62
2021/03/11 04:18:23;;;;;;;4.40;2.37;;;8.90;99.90;;;;;;5123374;27;20799;-62
2021/03/11 04:20:50;;;;;;;3.20;1.33;;;8.90;99.90;;;;;;5118215;27;20437;-62
2021/03/11 04:23:16;;;;;;;8.40;4.30;;;8.90;99.90;;;;;;5121018;27;20436;-62
2021/03/11 04:25:42;;;;;;;1.50;0.20;;;8.90;99.90;;;;;;5134878;27;20463;-62
2021/03/11 04:28:08;;;;;;;1.50;0.20;;;8.90;99.90;;;;;;5142304;27;20428;-62
2021/03/11 04:30:34;;;;;;;5.70;3.37;;;8.90;99.90;;;;;;5127221;28;20444;-62
2021/03/11 04:33:00;;;;;;;3.10;0.80;;;8.90;99.90;;;;;;5139228;27;20179;-62
2021/03/11 04:35:25;;;;;;;1.50;0.20;;;8.90;99.90;;;;;;5121445;27;20219;-62
2021/03/11 04:37:52;;;;;;;8.07;5.77;;;8.90;99.90;;;;;;5108350;27;20434;-62
2021/03/11 04:40:17;;;;;;;3.63;3.07;;;8.80;99.90;;;;;;5117535;27;20182;-62
2021/03/11 04:42:43;;;;;;;5.30;3.90;;;8.80;99.90;;;;;;5118063;27;20790;-62
2021/03/11 04:45:09;;;;;;;1.80;0.83;;;8.80;99.90;;;;;;5114154;27;20207;-62
2021/03/11 04:47:36;;;;;;;3.83;1.87;;;8.80;99.90;;;;;;5108395;27;20184;-62
2021/03/11 04:50:05;;;;;;;2.80;1.43;;;8.80;99.90;;;;;;5129802;27;20429;-63
2021/03/11 04:52:32;;;;;;;3.47;3.17;;;8.80;99.90;;;;;;5128438;28;20437;-62
2021/03/11 04:54:59;;;;;;;1.50;0.20;;;8.90;99.90;;;;;;5137244;27;20469;-62
2021/03/11 04:57:26;;;;;;;2.20;1.13;;;8.90;99.90;;;;;;5116003;27;20433;-66
2021/03/11 04:59:52;;;;;;;1.60;0.30;;;8.90;99.90;;;;;;5111787;27;20530;-62
2021/03/11 05:02:19;;;;;;;6.27;3.37;;;8.90;99.90;;;;;;5128478;27;20465;-61
2021/03/11 05:04:46;;;;;;;1.50;0.27;;;8.90;99.90;;;;;;5110728;27;20215;-62
2021/03/11 05:07:15;;;;;;;2.77;1.40;;;8.90;99.90;;;;;;5115645;27;20436;-62
2021/03/11 05:09:40;;;;;;;4.90;2.93;;;9.00;99.90;;;;;;5127027;27;20432;-62
2021/03/11 05:12:06;;;;;;;2.97;1.23;;;9.00;99.90;;;;;;5104449;28;20442;-62
2021/03/11 05:14:32;;;;;;;3.40;1.53;;;9.00;99.90;;;;;;5112902;27;20222;-61
2021/03/11 05:16:57;;;;;;;4.80;3.30;;;9.00;99.90;;;;;;5124548;27;20773;-62
2021/03/11 05:19:23;;;;;;;2.80;1.23;;;9.00;99.90;;;;;;5104893;28;20175;-61
2021/03/11 05:21:48;;;;;;;1.50;0.20;;;9.00;99.90;;;;;;5116510;27;20653;-62
2021/03/11 05:24:14;;;;;;;1.50;0.20;;;9.00;99.90;;;;;;5117396;27;20210;-62
2021/03/11 05:26:39;;;;;;;2.03;0.90;;;9.00;99.90;;;;;;5109911;27;20180;-62
2021/03/11 05:29:05;;;;;;;4.80;2.40;;;9.00;99.90;;;;;;5111666;27;20187;-62
2021/03/11 05:31:30;;;;;;;6.47;2.33;;;9.00;99.90;;;;;;5108077;27;20186;-62
2021/03/11 05:33:56;;;;;;;4.53;2.23;;;9.00;99.90;;;;;;5112442;28;20677;-62
2021/03/11 05:36:22;;;;;;;6.07;5.17;;;9.00;99.90;;;;;;5113152;28;20207;-62
2021/03/11 05:38:48;;;;;;;3.50;1.67;;;9.00;99.90;;;;;;5105423;28;20182;-62
2021/03/11 05:41:14;;;;;;;2.93;1.43;;;9.00;99.90;;;;;;5115844;27;20828;-62
2021/03/11 05:43:41;;;;;;;1.50;0.20;;;9.00;99.90;;;;;;5111794;27;20191;-62
2021/03/11 05:46:07;;;;;;;1.50;0.20;;;9.00;99.90;;;;;;5102975;28;20430;-62
2021/03/11 05:48:35;;;;;;;3.77;1.70;;;9.10;99.90;;;;;;5111461;28;20801;-62
2021/03/11 05:51:01;;;;;;;1.70;0.60;;;9.00;99.90;;;;;;5122211;28;20786;-62
2021/03/11 05:53:27;;;;;;;1.90;0.40;;;9.00;99.90;;;;;;5108624;28;20467;-62
2021/03/11 05:55:54;;;;;;;5.23;3.33;;;9.00;99.90;;;;;;5115621;28;20792;-62
2021/03/11 05:58:20;;;;;;;3.37;1.30;;;9.00;99.90;;;;;;5112717;28;20170;-62
2021/03/11 06:00:45;;;;;;;7.57;2.60;;;9.10;99.90;;;;;;5105908;28;20434;-62
2021/03/11 06:03:11;;;;;;;1.50;0.20;;;9.10;99.90;;;;;;5114036;28;20171;-62
2021/03/11 06:05:38;;;;;;;1.50;0.20;;;9.00;99.90;;;;;;5115142;28;20186;-62
2021/03/11 06:08:07;;;;;;;2.53;1.03;;;9.00;99.90;;;;;;5107847;28;20584;-62
2021/03/11 06:10:34;;;;;;;4.70;2.30;;;9.10;99.90;;;;;;5113793;28;20441;-62
2021/03/11 06:13:01;;;;;;;5.93;3.80;;;9.00;99.90;;;;;;5111839;28;20432;-62
2021/03/11 06:15:37;;;;;;;2.80;1.53;;;9.10;99.90;;;;;;5111575;28;20505;-62
2021/03/11 06:18:07;;;;;;;3.67;2.27;;;9.10;99.90;;;;;;5108964;28;20454;-62
2021/03/11 06:20:34;;;;;;;1.70;0.50;;;9.10;99.90;;;;;;5118478;28;20459;-62
2021/03/11 06:22:59;;;;;;;10.23;2.33;;;9.10;99.90;;;;;;5111105;28;20440;-62
2021/03/11 06:25:27;;;;;;;1.93;0.40;;;9.20;99.90;;;;;;5120037;28;20433;-62
2021/03/11 06:27:52;;;;;;;2.00;0.60;;;9.20;99.90;;;;;;5109516;28;20646;-62
2021/03/11 06:30:30;;;;;;;1.53;0.30;;;9.20;99.90;;;;;;5113217;28;20433;-62
2021/03/11 06:32:56;;;;;;;4.47;2.10;;;9.20;99.90;;;;;;5116746;28;20515;-62
2021/03/11 06:35:22;;;;;;;2.37;1.30;;;9.20;99.90;;;;;;5113076;28;20455;-62
2021/03/11 06:37:48;;;;;;;1.70;0.30;;;9.20;99.90;;;;;;5111887;28;20421;-62
2021/03/11 06:40:22;;;;;;;4.93;2.37;;;9.20;99.90;;;;;;5121641;28;20180;-61
2021/03/11 06:42:49;;;;;;;3.73;2.30;;;9.30;99.90;;;;;;5091023;28;20515;-62
2021/03/11 06:45:26;;;;;;;4.03;2.57;;;9.30;99.90;;;;;;5126195;28;20496;-62
2021/03/11 06:48:12;;;;;;;3.50;1.67;;;9.30;99.90;;;;;;5125205;28;20917;-61
2021/03/11 06:50:38;;;;;;;1.60;0.20;;;9.30;99.90;;;;;;5114573;28;20451;-62
2021/03/11 06:53:04;;;;;;;6.43;2.50;;;9.40;99.90;;;;;;5089475;28;20434;-62
2021/03/11 06:55:31;;;;;;;2.40;1.20;;;9.30;99.90;;;;;;5121288;27;20196;-62
2021/03/11 06:58:14;;;;;;;5.00;3.07;;;9.40;99.90;;;;;;5114110;27;20919;-62
2021/03/11 07:00:40;;;;;;;2.63;1.27;;;9.40;99.90;;;;;;5106583;27;20438;-62
2021/03/11 07:03:05;;;;;;;1.70;0.40;;;9.40;99.90;;;;;;5116399;27;20448;-62
2021/03/11 07:05:37;;;;;;;1.60;0.30;;;9.40;99.90;;;;;;5108096;27;20193;-62
2021/03/11 07:08:05;;;;;;;3.23;1.83;;;9.40;99.90;;;;;;5115649;27;20274;-62
2021/03/11 07:10:31;;;;;;;3.27;1.73;;;9.50;99.90;;;;;;5130093;27;20441;-62
2021/03/11 07:12:59;;;;;;;1.57;0.27;;;9.50;99.90;;;;;;5115753;27;20437;-61
2021/03/11 07:15:27;;;;;;;3.00;1.50;;;9.50;99.90;;;;;;5116626;27;20453;-62
2021/03/11 07:17:53;;;;;;;3.30;1.60;;;9.50;99.90;;;;;;5116340;27;20822;-61
2021/03/11 07:20:24;;;;;;;3.70;2.40;;;9.50;99.90;;;;;;5113281;27;20826;-61
2021/03/11 07:23:14;;;;;;;2.20;0.77;;;9.50;99.90;;;;;;5117005;27;20911;-61
2021/03/11 07:25:45;;;;;;;2.30;1.20;;;9.60;99.90;;;;;;5123980;27;20441;-61
2021/03/11 07:28:27;;;;;;;5.23;4.10;;;9.60;99.90;;;;;;5107434;27;20432;-62
2021/03/11 07:30:59;;;;;;;1.60;0.20;;;9.60;99.90;;;;;;5112545;27;20954;-61
2021/03/11 07:33:27;;;;;;;1.57;0.20;;;9.60;99.90;;;;;;5116308;27;20477;-61
2021/03/11 07:35:55;;;;;;;4.57;3.30;;;9.60;99.90;;;;;;5124070;27;20448;-60
2021/03/11 07:38:22;;;;;;;1.57;0.20;;;9.60;99.90;;;;;;5111508;27;21299;-60
2021/03/11 07:40:54;;;;;;;2.23;0.80;;;9.60;99.90;;;;;;5124855;27;20553;-60
2021/03/11 07:43:21;;;;;;;4.63;4.23;;;9.60;99.90;;;;;;5110237;27;20455;-60
2021/03/11 07:45:47;;;;;;;1.50;0.20;;;9.60;99.90;;;;;;5114687;27;20440;-60
2021/03/11 07:48:13;;;;;;;2.53;0.87;;;9.60;99.90;;;;;;5118347;27;20441;-61
2021/03/11 07:50:45;;;;;;;1.73;0.50;;;9.60;99.90;;;;;;5114019;27;20183;-60
2021/03/11 07:53:11;;;;;;;10.10;1.70;;;9.60;99.90;;;;;;5116829;27;20437;-60
2021/03/11 07:55:38;;;;;;;2.63;1.00;;;9.60;99.90;;;;;;5114109;28;20510;-60
2021/03/11 07:58:09;;;;;;;4.50;2.20;;;9.70;99.90;;;;;;5113791;27;20436;-60
2021/03/11 08:00:35;;;;;;;4.70;2.83;;;9.70;99.90;;;;;;5110236;27;20428;-60
2021/03/11 08:03:04;;;;;;;1.57;0.27;;;9.70;99.90;;;;;;5121134;27;20817;-61
2021/03/11 08:05:30;;;;;;;2.23;0.83;;;9.70;99.90;;;;;;5113410;27;20448;-60
2021/03/11 08:08:22;;;;;;;1.60;0.40;;;9.70;99.90;;;;;;5121637;27;20438;-60
2021/03/11 08:10:53;;;;;;;2.17;0.83;;;9.80;99.90;;;;;;5118766;28;20440;-60
2021/03/11 08:13:26;;;;;;;2.20;0.80;;;9.80;99.90;;;;;;5126377;27;20480;-60
2021/03/11 08:15:53;;;;;;;2.33;0.83;;;9.80;99.90;;;;;;5114000;27;20458;-60
2021/03/11 08:18:34;;;;;;;1.57;0.23;;;9.80;99.90;;;;;;5120216;27;20437;-61
2021/03/11 08:21:27;;;;;;;1.53;0.20;;;9.80;99.90;;;;;;5110489;27;20436;-60
2021/03/11 08:23:57;;;;;;;2.17;0.63;;;9.80;99.90;;;;;;5093020;28;20457;-61
2021/03/11 08:26:37;;;;;;;1.57;0.20;;;9.90;99.90;;;;;;5105536;27;20443;-61
2021/03/11 08:29:23;;;;;;;1.60;0.20;;;9.90;99.90;;;;;;5106875;27;20432;-61
2021/03/11 08:31:49;;;;;;;4.07;1.90;;;9.90;99.90;;;;;;5102077;27;20777;-61
2021/03/11 08:34:33;;;;;;;4.53;2.73;;;9.90;99.90;;;;;;5121053;27;20453;-61
2021/03/11 08:37:22;;;;;;;4.30;2.73;;;9.90;99.90;;;;;;5120455;27;20437;-61
2021/03/11 08:39:49;;;;;;;1.60;0.20;;;9.90;99.90;;;;;;5107180;27;20464;-61
2021/03/11 08:42:42;;;;;;;1.60;0.20;;;9.90;99.90;;;;;;5115567;27;20442;-61
2021/03/11 08:45:08;;;;;;;3.90;1.60;;;9.90;99.90;;;;;;5122967;27;20460;-61
2021/03/11 08:47:34;;;;;;;1.67;0.37;;;9.90;99.90;;;;;;5115253;27;20947;-61
2021/03/11 08:50:02;;;;;;;4.70;1.70;;;9.90;99.90;;;;;;5115391;27;20436;-61
2021/03/11 08:52:44;;;;;;;1.80;0.40;;;10.00;99.90;;;;;;5110556;27;20187;-61
2021/03/11 08:55:35;;;;;;;1.63;0.30;;;10.00;99.90;;;;;;5120223;27;20503;-61
2021/03/11 08:58:01;;;;;;;3.03;1.47;;;10.00;99.90;;;;;;5110025;27;20448;-61
2021/03/11 09:00:59;;;;;;;4.80;2.70;;;10.00;99.90;;;;;;5114943;27;20843;-61
2021/03/11 09:03:37;;;;;;;2.20;0.77;;;10.00;99.90;;;;;;5093886;28;20468;-61
2021/03/11 09:06:03;;;;;;;2.03;0.60;;;10.00;99.90;;;;;;5120640;27;20439;-62
2021/03/11 09:08:29;;;;;;;3.27;1.27;;;10.10;99.90;;;;;;5119530;27;20876;-61
2021/03/11 09:11:08;;;;;;;3.07;1.30;;;10.10;99.90;;;;;;5123657;27;20520;-61
2021/03/11 09:13:34;;;;;;;5.20;1.97;;;10.10;99.90;;;;;;5116367;27;20463;-61
2021/03/11 09:16:00;;;;;;;1.93;0.63;;;10.10;99.90;;;;;;5116645;27;20544;-61
2021/03/11 09:18:28;;;;;;;1.60;0.20;;;10.10;99.90;;;;;;5125570;27;21011;-61
2021/03/11 09:20:54;;;;;;;4.63;2.70;;;10.10;99.90;;;;;;5113950;27;20645;-61
2021/03/11 09:23:19;;;;;;;1.60;0.20;;;10.00;99.90;;;;;;5120597;27;20467;-61
2021/03/11 09:25:45;;;;;;;1.60;0.20;;;10.00;99.90;;;;;;5123539;27;20186;-62
2021/03/11 09:28:14;;;;;;;2.00;0.30;;;10.00;99.90;;;;;;5119395;27;20202;-61
2021/03/11 09:30:41;;;;;;;4.57;2.50;;;10.10;99.90;;;;;;5121545;27;20237;-61
2021/03/11 09:33:18;;;;;;;1.60;0.20;;;10.10;99.90;;;;;;5116489;27;21000;-61
2021/03/11 09:35:44;;;;;;;2.90;1.50;;;10.20;99.90;;;;;;5114195;27;20831;-61
2021/03/11 09:38:13;;;;;;;1.97;0.57;;;10.20;99.90;;;;;;5118799;28;20437;-61
2021/03/11 09:40:39;;;;;;;2.53;0.60;;;10.30;99.90;;;;;;5118811;27;20532;-61
2021/03/11 09:43:21;;;;;;;1.60;0.20;;;10.30;99.90;;;;;;5103455;28;20925;-66
2021/03/11 09:45:51;;;;;;;2.27;0.73;;;10.30;99.90;;;;;;5116010;27;20440;-61
2021/03/11 09:48:21;;;;;;;4.30;1.63;;;10.30;99.90;;;;;;5122900;28;20420;-61
2021/03/11 09:51:13;;;;;;;3.40;1.20;;;10.30;99.90;;;;;;5113313;28;20423;-61
2021/03/11 09:53:47;;;;;;;1.70;0.30;;;10.30;99.90;;;;;;5103796;28;20479;-62
2021/03/11 09:56:19;;;;;;;1.60;0.20;;;10.30;99.90;;;;;;5113686;28;20550;-61
2021/03/11 09:59:03;;;;;;;1.60;0.20;;;10.30;99.90;;;;;;5107235;28;20432;-61
2021/03/11 10:01:46;;;;;;;1.60;0.20;;;10.20;99.90;;;;;;5107421;28;20429;-61
2021/03/11 10:04:12;;;;;;;2.10;0.80;;;10.20;99.90;;;;;;5112215;28;20464;-61
2021/03/11 10:06:50;;;;;;;2.90;1.47;;;10.20;99.90;;;;;;5117909;28;20492;-61
2021/03/11 10:09:16;;;;;;;1.70;0.20;;;10.10;99.90;;;;;;5109343;28;21084;-61
2021/03/11 10:11:52;;;;;;;1.60;0.20;;;10.10;99.90;;;;;;5113463;28;20437;-61
2021/03/11 10:14:25;;;;;;;1.70;0.30;;;10.10;99.90;;;;;;5114093;28;20202;-61
2021/03/11 10:16:53;;;;;;;1.70;0.20;;;10.10;99.90;;;;;;5105350;28;20467;-61
2021/03/11 10:19:20;;;;;;;2.57;1.30;;;10.10;99.90;;;;;;5122265;28;20442;-60
2021/03/11 10:22:03;;;;;;;2.77;1.37;;;10.10;99.90;;;;;;5111902;28;20739;-61
2021/03/11 10:24:49;;;;;;;1.70;0.20;;;10.00;99.90;;;;;;5110083;28;20544;-61
2021/03/11 10:27:32;;;;;;;1.70;0.20;;;10.00;99.90;;;;;;5118249;28;20425;-61
2021/03/11 10:30:10;;;;;;;2.00;0.53;;;10.00;99.90;;;;;;5118189;27;20452;-61
2021/03/11 10:32:42;;;;;;;1.70;0.30;;;10.10;99.90;;;;;;5116286;27;20432;-61
2021/03/11 10:35:10;;;;;;;3.67;1.90;;;10.00;99.90;;;;;;5117037;27;20473;-61
2021/03/11 10:37:41;;;;;;;1.80;0.37;;;10.00;99.90;;;;;;5116543;27;20464;-61
2021/03/11 10:40:12;;;;;;;2.87;1.33;;;10.00;99.90;;;;;;5121494;27;21022;-61
2021/03/11 10:42:43;;;;;;;2.20;0.73;;;10.10;99.90;;;;;;5119286;27;20540;-60
2021/03/11 10:45:11;;;;;;;1.70;0.20;;;10.00;99.90;;;;;;5124466;27;20452;-61
2021/03/11 10:47:37;;;;;;;2.80;1.57;;;10.10;99.90;;;;;;5122816;27;20432;-61
2021/03/11 10:50:15;;;;;;;1.70;0.20;;;10.00;99.90;;;;;;5123002;27;20420;-61
2021/03/11 10:52:51;;;;;;;1.70;0.20;;;10.10;99.90;;;;;;5116201;27;20187;-61
2021/03/11 10:55:30;;;;;;;1.70;0.20;;;10.10;99.90;;;;;;5117585;27;21091;-61
2021/03/11 10:57:57;;;;;;;3.00;1.40;;;10.10;99.90;;;;;;5125210;27;20435;-63
2021/03/11 11:00:32;;;;;;;1.90;0.53;;;10.10;99.90;;;;;;5126070;27;20421;-61
2021/03/11 11:03:00;;;;;;;5.60;2.00;;;10.10;99.90;;;;;;5124856;27;20480;-61
2021/03/11 11:05:27;;;;;;;2.93;1.53;;;10.10;99.90;;;;;;5116580;27;20520;-61
2021/03/11 11:07:53;;;;;;;3.77;2.13;;;10.10;99.90;;;;;;5128074;27;20531;-61
2021/03/11 11:10:22;;;;;;;1.87;0.50;;;10.20;99.90;;;;;;5115598;27;20459;-61
2021/03/11 11:12:48;;;;;;;2.20;0.67;;;10.20;99.90;;;;;;5126998;27;20192;-61
2021/03/11 11:15:14;;;;;;;2.20;0.70;;;10.30;99.90;;;;;;5132537;27;20546;-61
2021/03/11 11:17:41;;;;;;;1.90;0.50;;;10.40;99.90;;;;;;5133584;27;20504;-61
2021/03/11 11:20:10;;;;;;;2.33;0.90;;;10.60;99.90;;;;;;5125937;27;20452;-61
2021/03/11 11:22:35;;;;;;;2.67;1.20;;;11.00;99.90;;;;;;5127918;27;20461;-60
2021/03/11 11:25:03;;;;;;;4.73;2.07;;;11.20;99.90;;;;;;5113487;27;20470;-60
2021/03/11 11:27:28;;;;;;;2.20;0.83;;;11.40;99.90;;;;;;5125885;27;20393;-61
2021/03/11 11:29:54;;;;;;;1.90;0.47;;;11.60;99.90;;;;;;5126699;27;20581;-61
2021/03/11 11:32:20;;;;;;;3.90;2.10;;;11.60;99.90;;;;;;5127289;27;20185;-61
2021/03/11 11:34:46;;;;;;;3.90;1.90;;;11.70;99.90;;;;;;5126316;27;20208;-63
2021/03/11 11:37:12;;;;;;;1.90;0.40;;;11.60;99.90;;;;;;5127860;27;20437;-61
2021/03/11 11:39:37;;;;;;;1.90;0.40;;;11.60;99.90;;;;;;5127939;27;20429;-61
2021/03/11 11:42:06;;;;;;;2.20;0.60;;;11.60;99.90;;;;;;5131873;27;20261;-61
2021/03/11 11:44:31;;;;;;;2.43;1.20;;;11.70;99.90;;;;;;5125230;27;20206;-61
2021/03/11 11:46:57;;;;;;;1.73;0.30;;;11.80;99.90;;;;;;5112869;27;20437;-61
2021/03/11 11:49:23;;;;;;;1.80;0.20;;;11.80;99.90;;;;;;5127076;27;20183;-61
2021/03/11 11:51:48;;;;;;;1.90;0.50;;;11.80;99.90;;;;;;5110458;27;20190;-61
2021/03/11 11:54:14;;;;;;;6.47;1.10;;;11.90;99.90;;;;;;5111851;27;20759;-61
2021/03/11 11:56:39;;;;;;;1.70;0.23;;;11.90;99.90;;;;;;5110663;27;20280;-61
2021/03/11 11:59:05;;;;;;;1.77;0.30;;;11.90;99.90;;;;;;5112621;27;20190;-61
2021/03/11 12:01:30;;;;;;;4.40;0.97;;;11.90;99.90;;;;;;5119866;27;20233;-61
2021/03/11 12:03:56;;;;;;;2.63;0.97;;;11.90;99.90;;;;;;5122308;27;20187;-61
2021/03/11 12:06:21;;;;;;;1.80;0.30;;;11.90;99.90;;;;;;5108252;27;20175;-61
2021/03/11 12:08:47;;;;;;;1.80;0.30;;;11.90;99.90;;;;;;5118264;27;20550;-61
2021/03/11 12:11:13;;;;;;;1.83;0.40;;;11.80;99.90;;;;;;5116801;27;20231;-61
2021/03/11 12:13:38;;;;;;;1.70;0.20;;;11.80;99.90;;;;;;5110325;27;20294;-61
2021/03/11 12:16:04;;;;;;;2.20;0.77;;;11.80;99.90;;;;;;5122815;27;20202;-62
2021/03/11 12:18:30;;;;;;;2.03;0.67;;;11.80;99.90;;;;;;5106808;27;20312;-60
2021/03/11 12:20:55;;;;;;;2.77;0.93;;;11.70;99.90;;;;;;5106688;27;20247;-60
2021/03/11 12:23:21;;;;;;;4.00;1.70;;;11.70;99.90;;;;;;5122316;27;20202;-60
2021/03/11 12:25:46;;;;;;;1.90;0.40;;;11.60;99.90;;;;;;5119138;27;20258;-62
2021/03/11 12:28:12;;;;;;;2.97;0.77;;;11.50;99.90;;;;;;5113459;27;20183;-61
2021/03/11 12:30:38;;;;;;;3.40;1.53;;;11.40;99.90;;;;;;5118483;27;20187;-62
2021/03/11 12:33:03;;;;;;;2.00;0.60;;;11.40;99.90;;;;;;5120346;27;20179;-60
2021/03/11 12:35:30;;;;;;;3.03;1.27;;;11.30;99.90;;;;;;5132700;27;20208;-61
2021/03/11 12:37:56;;;;;;;1.70;0.20;;;11.30;99.90;;;;;;5128306;27;20177;-62
2021/03/11 12:40:23;;;;;;;2.60;1.83;;;11.40;99.90;;;;;;5110365;27;20562;-61
2021/03/11 12:42:49;;;;;;;1.77;0.27;;;11.40;99.90;;;;;;5115864;27;20417;-61
2021/03/11 12:45:20;;;;;;;2.93;1.90;;;11.50;99.90;;;;;;5108460;27;20444;-61
2021/03/11 12:47:46;;;;;;;2.50;1.07;;;11.60;99.90;;;;;;5107266;28;20947;-61
2021/03/11 12:50:14;;;;;;;3.10;1.47;;;11.70;99.90;;;;;;5119375;27;20448;-61
2021/03/11 12:52:40;;;;;;;2.30;1.20;;;11.70;99.90;;;;;;5111783;27;20265;-61
2021/03/11 12:55:07;;;;;;;6.20;1.67;;;11.60;99.90;;;;;;5110188;27;20642;-61
2021/03/11 12:57:32;;;;;;;2.80;1.40;;;11.70;99.90;;;;;;5110420;27;20516;-61
2021/03/11 12:59:58;;;;;;;4.07;1.23;;;11.80;99.90;;;;;;5095791;28;20471;-61
2021/03/11 13:02:23;;;;;;;1.90;0.33;;;11.90;99.90;;;;;;5114121;27;20186;-61